Leadville, CO

9:36 AM MDT on August 30, 2014 (GMT -0600)
Lake County | Change Station
CLOSE
Current Station
Airport
Location: Leadville,
Elevation: 9928 ft
Nearby Weather Stations

Elev 9928 ft 39.23 °N, 106.32 °W | Updated 43 minutes ago

Clear
Clear
47 °F
Feels Like 47 °F
N
0
Wind Variable Wind from North

Today
High -- | Low -- °F
--% Chance of Precip.
Yesterday
High -- | Low -- °F
Precip. -- in
6:31 AM 7:38 PM
Waxing Crescent, 22% visible
Pressure 30.03 in
Visibility 10.0 miles
Clouds Clear
Dew Point 38 °F
Humidity 71%
Rainfall 0.00 in
Snow Depth 0 in , 0 in , 0 in
UV 3 out of 12
Pollen 10.50 out of 12
Air Quality Not available.
Flu Activity Not available.
METAR KLXV 301453Z AUTO 00000KT 10SM CLR 08/03 A3041 RMK AO2 SLP169 T00830033 58002

More Conditions Fewer Conditions

Pressure 30.03 in
Visibility 10.0 miles
Clouds Clear
Dew Point 38 °F
Humidity 71%
Rainfall 0.00 in
Snow Depth 0 in , 0 in , 0 in
UV 3 out of 12
Pollen 10.50 out of 12
Air Quality Not available.
Flu Activity Not available.
METAR KLXV 301453Z AUTO 00000KT 10SM CLR 08/03 A3041 RMK AO2 SLP169 T00830033 58002

More Conditions Fewer Conditions

10-Day Weather Forecast

Almanac

Astronomy

Aug. 30, 2014 Rise Set
Actual Time 6:31 AM MDT 7:38 PM MDT
Civil Twilight 6:04 AM MDT 8:06 PM MDT
Nautical Twilight 5:31 AM MDT 8:39 PM MDT
Astronomical Twilight 4:56 AM MDT 9:13 PM MDT
Moon 11:20 AM MDT 10:16 PM MDT
Length of Visible Light 14h 02m
Length of Day
13h 07m
Tomorrow will be 2m 27s shorter.
Waxing Crescent, 22% of the Moon is Illuminated
Today
Waxing Crescent
Sep 2
First Quarter
Sep 8
Full
Sep 15
Last Quarter
Sep 24
New

Today's Extremes

State Highs State Lows

Community

WunderPhotos

Upload Photos

1,748,551 photos uploaded!

WunderBlogs® & News

Nearby

Snow Depth

Station Depth Elevation
Fremont Pass 0 in 11400 ft
Buckskin Joe 0 in 11150 ft
Hoosier Pass 0 in 11400 ft
Copper Mountain 0 in 10500 ft
Ivanhoe 1 in 10400 ft

Earthquake Activity

City Distance Mag. Time & Date
No recent earthquake activity has been reported nearby.
Minimum magnitude displayed is 2.5.

Coastal Water Temperatures

Place Temperature
No Stations Reporting

Nearby Weather Stations